EHAM/AMS METAR and TAF weather

Enter ICAO airport designator
Station Type Date Time Source
EHAM METAR 2020/04/07 04:55 UTC NOAA

EHAM 070455Z 12002KT 5000 R18C/1700N R27/1900N R18R/0375D R06/P2000U BCFG NSC 05/05 Q1030 TEMPO 1500


Station Type Date Time Source
EHAM Decoded METAR 2020/04/07 04:55 UTC NOAA

Amsterdam Airport Schiphol, Netherlands (EHAM) 52-18N 004-46E -2M
Apr 07, 2020 - 12:55 AM EDT / 2020.04.07 0455 UTC
Wind: from the ESE (120 degrees) at 2 MPH (2 KT):0
Visibility: 3 mile(s):0
Weather: patches of fog
Temperature: 41 F (5 C)
Dew Point: 41 F (5 C)
Relative Humidity: 100%
Pressure (altimeter): 30.42 in. Hg (1030 hPa)
ob: EHAM 070455Z 12002KT 5000 R18C/1700N R27/1900N R18R/0375D R06/P2000U BCFG NSC 05/05 Q1030 TEMPO 1500
cycle: 5

Station Type Date Time Source
EHAM TAF 2020/04/06 18:27 UTC NOAA

TAF TAF EHAM 061715Z 0618/0724 25010KT 9999 BKN030 PROB30
TEMPO 0618/0620 BKN014
BECMG 0619/0622 24005KT
BECMG 0700/0703 VRB03KT 4000 MIFG BR NSC PROB30 0703/0707 1400 BCFG
BECMG 0706/0709 10007KT CAVOK

Example: see airport list